createdAt,value
2023-03-18T00:00:35.304Z,0.24
2023-03-18T00:03:43.232Z,0.14
2023-03-18T00:06:49.917Z,0.03
2023-03-18T00:09:56.817Z,-0.10
2023-03-18T00:13:04.683Z,-0.04
2023-03-18T00:16:15.340Z,-0.06
2023-03-18T00:19:21.386Z,-0.29
2023-03-18T00:22:28.618Z,-0.41
2023-03-18T00:25:34.560Z,-0.40
2023-03-18T00:28:46.647Z,-0.26
2023-03-18T00:31:56.438Z,-0.17
2023-03-18T00:35:06.358Z,-0.23
2023-03-18T00:38:20.963Z,-0.37
2023-03-18T00:41:29.404Z,-0.44
2023-03-18T00:44:43.600Z,-0.48
2023-03-18T00:47:53.952Z,-0.64
2023-03-18T00:51:00.854Z,-0.81
2023-03-18T00:54:19.932Z,-0.71
2023-03-18T00:57:27.613Z,-0.76
2023-03-18T01:00:35.848Z,-0.61
2023-03-18T01:03:47.921Z,-0.76
2023-03-18T01:06:54.635Z,-0.88
2023-03-18T01:10:00.521Z,-0.88
2023-03-18T01:13:07.249Z,-0.99
2023-03-18T01:16:18.080Z,-1.07
2023-03-18T01:19:29.449Z,-1.05
2023-03-18T01:22:36.246Z,-1.05
2023-03-18T01:25:43.577Z,-1.09
2023-03-18T01:28:51.053Z,-1.17
2023-03-18T01:32:10.918Z,-1.25
2023-03-18T01:35:20.507Z,-1.25
2023-03-18T01:38:34.845Z,-1.19
2023-03-18T01:42:00.121Z,-1.23
2023-03-18T01:45:24.928Z,-1.22
2023-03-18T01:48:42.751Z,-1.17
2023-03-18T01:52:00.633Z,-1.22
2023-03-18T01:55:12.876Z,-1.17
2023-03-18T01:58:25.714Z,-1.20
2023-03-18T02:01:38.361Z,-1.17
2023-03-18T02:04:50.949Z,-1.17
2023-03-18T02:08:06.941Z,-1.11
2023-03-18T02:11:14.439Z,-1.16
2023-03-18T02:14:26.878Z,-1.16
2023-03-18T02:17:40.386Z,-1.12
2023-03-18T02:21:17.045Z,-1.29
2023-03-18T02:24:48.360Z,-1.09
2023-03-18T02:28:11.689Z,-1.15
2023-03-18T02:31:21.244Z,-1.39
2023-03-18T02:34:29.638Z,-1.42
2023-03-18T02:37:37.405Z,-1.55
2023-03-18T02:40:46.173Z,-1.60
2023-03-18T02:44:01.065Z,-1.74
2023-03-18T02:47:23.803Z,-1.87
2023-03-18T02:50:30.812Z,-1.95
2023-03-18T02:54:04.201Z,-2.03
2023-03-18T02:57:16.199Z,-2.20
2023-03-18T03:00:28.471Z,-2.25
2023-03-18T03:03:42.594Z,-2.38
2023-03-18T03:06:51.687Z,-2.38
2023-03-18T03:10:05.250Z,-2.40
2023-03-18T03:13:13.710Z,-2.45
2023-03-18T03:16:24.969Z,-2.55
2023-03-18T03:19:31.122Z,-2.60
2023-03-18T03:22:51.575Z,-2.64
2023-03-18T03:26:04.076Z,-2.66
2023-03-18T03:29:12.811Z,-2.48
2023-03-18T03:32:24.899Z,-2.43
2023-03-18T03:35:32.645Z,-2.34
2023-03-18T03:38:38.839Z,-2.36
2023-03-18T03:41:46.473Z,-2.40
2023-03-18T03:44:55.140Z,-2.35
2023-03-18T03:48:15.697Z,-2.36
2023-03-18T03:51:24.126Z,-2.26
2023-03-18T03:54:31.703Z,-2.13
2023-03-18T03:57:40.008Z,-2.19
2023-03-18T04:00:46.770Z,-2.28
2023-03-18T04:03:58.168Z,-2.23
2023-03-18T04:07:05.383Z,-2.25
2023-03-18T04:10:15.179Z,-2.27
2023-03-18T04:13:22.775Z,-2.28
2023-03-18T04:16:29.541Z,-2.47
2023-03-18T04:19:39.953Z,-2.46
2023-03-18T04:22:47.070Z,-2.40
2023-03-18T04:25:55.044Z,-2.42
2023-03-18T04:29:01.202Z,-2.36
2023-03-18T04:32:11.123Z,-2.38
2023-03-18T04:35:21.712Z,-2.28
2023-03-18T04:38:30.789Z,-2.22
2023-03-18T04:41:37.692Z,-2.19
2023-03-18T04:44:45.928Z,-2.35
2023-03-18T04:47:53.079Z,-2.29
2023-03-18T04:51:08.395Z,-2.26
2023-03-18T04:54:15.396Z,-2.16
2023-03-18T04:57:22.621Z,-2.18
2023-03-18T05:00:35.445Z,-2.38
2023-03-18T05:03:55.465Z,-2.28
2023-03-18T05:07:07.384Z,-2.27
2023-03-18T05:10:19.089Z,-2.38
2023-03-18T05:13:25.489Z,-2.42
2023-03-18T05:16:37.474Z,-2.30
2023-03-18T05:19:44.259Z,-2.44
2023-03-18T05:22:58.459Z,-2.44
2023-03-18T05:26:20.857Z,-2.31
2023-03-18T05:29:27.935Z,-2.27
2023-03-18T05:32:43.653Z,-2.12
2023-03-18T05:35:51.148Z,-1.88
2023-03-18T05:39:03.503Z,-1.88
2023-03-18T05:42:11.817Z,-1.75
2023-03-18T05:45:22.557Z,-1.55
2023-03-18T05:48:36.414Z,-1.46
2023-03-18T05:51:44.998Z,-1.41
2023-03-18T05:54:59.501Z,-1.31
2023-03-18T05:58:10.385Z,-1.02
2023-03-18T06:01:23.009Z,-0.39
2023-03-18T06:04:29.507Z,-0.04
2023-03-18T06:07:36.896Z,0.34
2023-03-18T06:11:00.761Z,0.91
2023-03-18T06:14:11.990Z,0.66
2023-03-18T06:17:18.317Z,0.83
2023-03-18T06:20:25.403Z,1.06
2023-03-18T06:23:31.936Z,1.13
2023-03-18T06:26:41.726Z,2.08
2023-03-18T06:29:48.206Z,1.61
2023-03-18T06:32:58.096Z,1.94
2023-03-18T06:36:10.832Z,1.76
2023-03-18T06:39:30.189Z,2.35
2023-03-18T06:42:44.855Z,2.54
2023-03-18T06:45:59.750Z,2.75
2023-03-18T06:49:22.679Z,2.53
2023-03-18T06:52:40.696Z,3.17
2023-03-18T06:56:00.364Z,3.33
2023-03-18T06:59:28.885Z,2.93
2023-03-18T07:02:39.439Z,3.64
2023-03-18T07:05:47.914Z,3.63
2023-03-18T07:08:55.340Z,3.06
2023-03-18T07:12:03.574Z,3.40
2023-03-18T07:15:14.945Z,4.11
2023-03-18T07:18:21.906Z,5.44
2023-03-18T07:21:28.204Z,6.30
2023-03-18T07:24:36.175Z,7.35
2023-03-18T07:27:42.492Z,7.94
2023-03-18T07:30:54.052Z,8.22
2023-03-18T07:34:00.804Z,7.88
2023-03-18T07:37:17.830Z,8.36
2023-03-18T07:40:26.421Z,8.09
2023-03-18T07:43:33.081Z,8.77
2023-03-18T07:46:41.693Z,9.40
2023-03-18T07:49:48.646Z,9.27
2023-03-18T07:52:55.190Z,8.42
2023-03-18T07:56:08.403Z,8.31
2023-03-18T07:59:16.107Z,8.55
2023-03-18T08:02:28.418Z,8.90
2023-03-18T08:05:34.981Z,9.14
2023-03-18T08:08:44.891Z,9.03
2023-03-18T08:11:51.063Z,9.93
2023-03-18T08:14:58.217Z,9.88
2023-03-18T08:18:27.398Z,10.01
2023-03-18T08:21:50.890Z,9.17
2023-03-18T08:24:58.508Z,9.51
2023-03-18T08:28:12.352Z,9.73
2023-03-18T08:31:18.493Z,9.13
2023-03-18T08:34:28.100Z,8.91
2023-03-18T08:37:34.083Z,8.97
2023-03-18T08:40:48.524Z,9.79
2023-03-18T08:43:57.519Z,9.84
2023-03-18T08:47:04.441Z,9.69
2023-03-18T08:50:17.362Z,9.91
2023-03-18T08:53:24.520Z,11.01
2023-03-18T08:56:32.769Z,10.64
2023-03-18T08:59:44.802Z,10.54
2023-03-18T09:02:51.193Z,10.22
2023-03-18T09:06:00.794Z,9.80
2023-03-18T09:09:09.854Z,10.33
2023-03-18T09:12:19.583Z,10.73
2023-03-18T09:15:25.775Z,10.58
2023-03-18T09:18:32.867Z,9.72
2023-03-18T09:21:41.689Z,8.92
2023-03-18T09:24:48.569Z,10.14
2023-03-18T09:27:55.344Z,9.39
2023-03-18T09:31:02.812Z,9.48
2023-03-18T09:34:08.709Z,10.21
2023-03-18T09:37:25.688Z,11.56
2023-03-18T09:40:44.124Z,11.64
2023-03-18T09:44:14.974Z,10.36
2023-03-18T09:47:54.349Z,10.55
2023-03-18T09:51:20.030Z,10.04
2023-03-18T09:54:41.415Z,10.25
2023-03-18T09:57:54.588Z,11.17
2023-03-18T10:01:07.461Z,12.44
2023-03-18T10:04:23.790Z,12.81
2023-03-18T10:07:40.409Z,12.08
2023-03-18T10:10:52.610Z,11.24
2023-03-18T10:14:21.360Z,11.04
2023-03-18T10:17:35.838Z,11.24
2023-03-18T10:21:08.221Z,11.39
2023-03-18T10:24:38.277Z,11.71
2023-03-18T10:28:06.937Z,11.81
2023-03-18T10:31:29.939Z,13.02
2023-03-18T10:34:49.319Z,12.69
2023-03-18T10:38:06.202Z,12.53
2023-03-18T10:41:30.375Z,11.65
2023-03-18T10:44:45.802Z,11.46
2023-03-18T10:48:06.322Z,10.22
2023-03-18T10:51:24.874Z,10.78
2023-03-18T10:54:41.147Z,10.05
2023-03-18T10:57:48.068Z,10.52
2023-03-18T11:00:56.547Z,10.45
2023-03-18T11:04:11.466Z,10.65
2023-03-18T11:07:26.192Z,11.10
2023-03-18T11:10:40.053Z,12.00
2023-03-18T11:13:50.876Z,11.52
2023-03-18T11:17:06.492Z,12.36
2023-03-18T11:20:25.637Z,12.02
2023-03-18T11:23:56.275Z,12.61
2023-03-18T11:27:02.557Z,13.08
2023-03-18T11:30:33.667Z,13.57
2023-03-18T11:33:42.797Z,13.51
2023-03-18T11:36:59.222Z,13.65
2023-03-18T11:40:26.570Z,13.58
2023-03-18T11:43:33.471Z,13.57
2023-03-18T11:46:48.736Z,13.75
2023-03-18T11:49:59.661Z,12.60
2023-03-18T11:53:26.472Z,13.16
2023-03-18T11:56:43.700Z,12.81
2023-03-18T12:00:17.829Z,13.62
2023-03-18T12:04:08.097Z,13.42
2023-03-18T12:07:52.477Z,13.32
2023-03-18T12:11:14.839Z,14.51
2023-03-18T12:14:36.527Z,13.99
2023-03-18T12:18:04.520Z,14.49
2023-03-18T12:21:45.727Z,14.37
2023-03-18T12:25:30.922Z,14.80
2023-03-18T12:28:56.512Z,16.75
2023-03-18T12:32:26.740Z,16.96
2023-03-18T12:35:53.664Z,16.34
2023-03-18T12:39:31.219Z,16.08
2023-03-18T12:43:03.945Z,15.32
2023-03-18T12:46:29.475Z,16.62
2023-03-18T12:49:41.952Z,16.02
2023-03-18T12:52:57.959Z,17.25
2023-03-18T12:56:27.839Z,17.48
2023-03-18T12:59:53.957Z,17.46
2023-03-18T13:03:09.012Z,15.12
2023-03-18T13:06:26.826Z,14.19
2023-03-18T13:09:43.918Z,14.98
2023-03-18T13:12:56.218Z,16.17
2023-03-18T13:16:09.290Z,15.66
2023-03-18T13:19:16.127Z,15.31
2023-03-18T13:23:00.687Z,15.51
2023-03-18T13:26:24.529Z,14.44
2023-03-18T13:29:46.197Z,13.63
2023-03-18T13:33:37.494Z,13.64
2023-03-18T13:37:30.896Z,13.28
2023-03-18T13:41:22.627Z,13.22
2023-03-18T13:44:47.736Z,13.29
2023-03-18T13:48:08.842Z,13.30
2023-03-18T13:51:43.679Z,12.92
2023-03-18T13:54:51.826Z,13.16
2023-03-18T13:58:11.860Z,12.97
2023-03-18T14:01:36.763Z,12.91
2023-03-18T14:04:53.738Z,12.15
2023-03-18T14:08:45.118Z,12.04
2023-03-18T14:11:54.631Z,11.75
2023-03-18T14:15:08.265Z,11.32
2023-03-18T14:18:28.865Z,11.36
2023-03-18T14:21:52.621Z,11.79
2023-03-18T14:25:23.819Z,12.10
2023-03-18T14:28:31.973Z,11.63
2023-03-18T14:31:59.454Z,12.05
2023-03-18T14:35:30.082Z,12.21
2023-03-18T14:38:51.956Z,12.45
2023-03-18T14:42:06.180Z,12.55
2023-03-18T14:45:24.733Z,12.42
2023-03-18T14:48:35.585Z,12.39
2023-03-18T14:51:41.940Z,12.17
2023-03-18T14:54:58.077Z,12.23
2023-03-18T14:58:07.383Z,12.32
2023-03-18T15:01:26.056Z,12.19
2023-03-18T15:04:32.206Z,11.75
2023-03-18T15:07:47.740Z,11.93
2023-03-18T15:11:05.817Z,12.09
2023-03-18T15:14:26.271Z,12.10
2023-03-18T15:17:32.492Z,12.15
2023-03-18T15:20:40.596Z,12.14
2023-03-18T15:23:54.694Z,12.02
2023-03-18T15:27:14.680Z,11.91
2023-03-18T15:30:36.369Z,11.83
2023-03-18T15:33:44.176Z,11.76
2023-03-18T15:36:58.214Z,11.88
2023-03-18T15:40:31.273Z,11.68
2023-03-18T15:43:46.452Z,11.47
2023-03-18T15:46:54.786Z,11.58
2023-03-18T15:50:03.100Z,11.66
2023-03-18T15:53:25.101Z,11.69
2023-03-18T15:56:34.541Z,11.65
2023-03-18T15:59:44.269Z,11.60
2023-03-18T16:02:50.771Z,11.57
2023-03-18T16:06:01.223Z,11.54
2023-03-18T16:09:18.807Z,11.47
2023-03-18T16:12:29.991Z,11.35
2023-03-18T16:15:39.486Z,11.27
2023-03-18T16:18:46.928Z,11.21
2023-03-18T16:21:52.871Z,11.17
2023-03-18T16:24:59.945Z,11.05
2023-03-18T16:28:25.975Z,10.94
2023-03-18T16:31:42.336Z,10.88
2023-03-18T16:34:48.775Z,10.79
2023-03-18T16:37:57.090Z,10.72
2023-03-18T16:41:05.316Z,10.64
2023-03-18T16:44:19.470Z,10.55
2023-03-18T16:47:32.143Z,10.24
2023-03-18T16:50:45.064Z,10.19
2023-03-18T16:53:56.407Z,10.15
2023-03-18T16:57:08.373Z,10.04
2023-03-18T17:00:22.936Z,9.91
2023-03-18T17:03:35.305Z,9.76
2023-03-18T17:06:41.261Z,9.59
2023-03-18T17:09:48.148Z,9.45
2023-03-18T17:13:00.558Z,9.30
2023-03-18T17:16:08.228Z,9.27
2023-03-18T17:19:19.128Z,9.11
2023-03-18T17:22:29.689Z,9.09
2023-03-18T17:25:36.399Z,9.09
2023-03-18T17:28:49.531Z,9.05
2023-03-18T17:31:57.607Z,8.97
2023-03-18T17:35:17.866Z,8.93
2023-03-18T17:38:24.655Z,8.87
2023-03-18T17:41:32.572Z,8.79
2023-03-18T17:44:39.242Z,8.72
2023-03-18T17:47:46.102Z,8.63
2023-03-18T17:50:58.322Z,8.57
2023-03-18T17:54:05.946Z,8.48
2023-03-18T17:57:18.098Z,8.37
2023-03-18T18:00:29.311Z,8.28
2023-03-18T18:03:38.974Z,8.20
2023-03-18T18:06:50.149Z,8.15
2023-03-18T18:09:57.292Z,8.06
2023-03-18T18:13:04.946Z,7.99
2023-03-18T18:16:11.212Z,7.94
2023-03-18T18:19:18.872Z,7.84
2023-03-18T18:22:27.863Z,7.77
2023-03-18T18:25:35.956Z,7.70
2023-03-18T18:28:45.033Z,7.64
2023-03-18T18:31:52.471Z,7.62
2023-03-18T18:34:58.488Z,7.56
2023-03-18T18:38:08.208Z,7.51
2023-03-18T18:41:14.551Z,7.44
2023-03-18T18:44:22.007Z,7.40
2023-03-18T18:47:28.215Z,7.35
2023-03-18T18:50:35.804Z,7.32
2023-03-18T18:53:44.452Z,7.31
2023-03-18T18:56:51.434Z,7.29
2023-03-18T18:59:58.302Z,7.24
2023-03-18T19:03:05.996Z,7.19
2023-03-18T19:06:29.522Z,7.18
2023-03-18T19:09:39.395Z,7.14
2023-03-18T19:12:46.495Z,7.09
2023-03-18T19:15:58.395Z,6.97
2023-03-18T19:19:06.303Z,6.85
2023-03-18T19:22:18.345Z,6.70
2023-03-18T19:25:28.818Z,6.64
2023-03-18T19:28:59.724Z,6.61
2023-03-18T19:32:09.425Z,6.56
2023-03-18T19:35:17.358Z,6.50
2023-03-18T19:38:25.148Z,6.49
2023-03-18T19:41:34.566Z,6.45
2023-03-18T19:44:42.671Z,6.44
2023-03-18T19:47:50.068Z,6.39
2023-03-18T19:50:57.884Z,6.39
2023-03-18T19:54:31.725Z,6.39
2023-03-18T19:57:40.350Z,6.37
2023-03-18T20:00:47.811Z,6.36
2023-03-18T20:03:59.161Z,6.36
2023-03-18T20:07:08.484Z,6.33
2023-03-18T20:10:16.912Z,6.31
2023-03-18T20:13:27.242Z,6.32
2023-03-18T20:16:36.505Z,6.32
2023-03-18T20:19:43.314Z,6.40
2023-03-18T20:22:55.934Z,6.45
2023-03-18T20:26:02.994Z,6.47
2023-03-18T20:29:21.132Z,6.50
2023-03-18T20:32:28.414Z,6.48
2023-03-18T20:35:38.411Z,6.41
2023-03-18T20:38:48.344Z,6.40
2023-03-18T20:41:54.634Z,6.38
2023-03-18T20:45:04.321Z,6.31
2023-03-18T20:48:10.780Z,6.34
2023-03-18T20:51:25.406Z,6.29
2023-03-18T20:54:37.562Z,6.24
2023-03-18T20:57:44.292Z,6.08
2023-03-18T21:00:54.252Z,5.99
2023-03-18T21:04:02.570Z,5.95
2023-03-18T21:07:08.566Z,5.92
2023-03-18T21:10:21.416Z,5.87
2023-03-18T21:13:34.014Z,5.83
2023-03-18T21:16:43.584Z,5.84
2023-03-18T21:19:50.484Z,5.74
2023-03-18T21:22:58.035Z,5.65
2023-03-18T21:26:04.426Z,5.57
2023-03-18T21:29:11.076Z,5.45
2023-03-18T21:32:27.331Z,5.51
2023-03-18T21:35:34.611Z,5.42
2023-03-18T21:38:40.708Z,5.35
2023-03-18T21:41:47.550Z,5.30
2023-03-18T21:44:54.768Z,5.32
2023-03-18T21:48:04.164Z,5.31
2023-03-18T21:51:38.182Z,5.30
2023-03-18T21:54:45.890Z,5.31
2023-03-18T21:57:52.853Z,5.20
2023-03-18T22:01:02.710Z,5.11
2023-03-18T22:04:12.128Z,5.06
2023-03-18T22:07:21.912Z,4.97
2023-03-18T22:10:28.941Z,4.93
2023-03-18T22:13:36.235Z,4.91
2023-03-18T22:16:42.088Z,4.90
2023-03-18T22:19:52.308Z,4.74
2023-03-18T22:22:58.442Z,4.79
2023-03-18T22:26:05.140Z,4.72
2023-03-18T22:29:10.921Z,4.62
2023-03-18T22:32:40.677Z,4.46
2023-03-18T22:35:49.663Z,4.26
2023-03-18T22:38:56.536Z,4.02
2023-03-18T22:42:02.665Z,4.07
2023-03-18T22:45:22.810Z,3.92
2023-03-18T22:48:29.737Z,3.66
2023-03-18T22:51:44.987Z,3.51
2023-03-18T22:54:56.086Z,3.24
2023-03-18T22:58:02.837Z,3.03
2023-03-18T23:01:09.923Z,2.83
2023-03-18T23:04:19.708Z,2.72
2023-03-18T23:07:34.456Z,2.68
2023-03-18T23:10:42.348Z,2.70
2023-03-18T23:13:53.433Z,2.80
2023-03-18T23:17:00.137Z,2.90
2023-03-18T23:20:06.278Z,2.98
2023-03-18T23:23:16.442Z,3.01
2023-03-18T23:26:22.758Z,3.09
2023-03-18T23:29:29.483Z,3.20
2023-03-18T23:32:35.965Z,3.22
2023-03-18T23:35:44.232Z,3.25
2023-03-18T23:38:52.817Z,3.26
2023-03-18T23:41:59.826Z,3.19
2023-03-18T23:45:06.951Z,3.02
2023-03-18T23:48:13.685Z,2.88
2023-03-18T23:51:19.525Z,2.81
2023-03-18T23:54:29.212Z,2.89
2023-03-18T23:57:35.104Z,2.82
